Time;durP1;ratioP1;P1;durP2;ratioP2;P2;SDS_P1;SDS_P2;PMS_P1;PMS_P2;Temp;Humidity;BMP_temperature;BMP_pressure;BME280_temperature;BME280_humidity;BME280_pressure;Samples;Min_cycle;Max_cycle;Signal;HPM_P1;HPM_P2
2022/05/27 00:01:08;;;;;;;21.10;20.00;;;;;;;;;;5097433;28;20433;-85
2022/05/27 00:03:35;;;;;;;20.60;19.50;;;;;;;;;;5096763;28;20571;-84
2022/05/27 00:06:02;;;;;;;22.70;21.30;;;;;;;;;;5095894;28;20467;-84
2022/05/27 00:08:30;;;;;;;22.00;20.50;;;;;;;;;;5097414;28;20419;-83
2022/05/27 00:10:57;;;;;;;21.97;20.67;;;;;;;;;;5095118;28;20419;-84
2022/05/27 00:13:25;;;;;;;23.37;21.63;;;;;;;;;;5094765;28;20789;-84
2022/05/27 00:15:52;;;;;;;22.63;21.07;;;;;;;;;;5093911;28;20466;-84
2022/05/27 00:18:21;;;;;;;23.63;21.97;;;;;;;;;;5094051;28;20946;-85
2022/05/27 00:20:48;;;;;;;24.00;22.60;;;;;;;;;;5094021;28;20400;-85
2022/05/27 00:23:17;;;;;;;23.93;22.33;;;;;;;;;;5094293;28;20408;-84
2022/05/27 00:25:44;;;;;;;23.17;21.67;;;;;;;;;;5093934;28;20813;-84
2022/05/27 00:28:11;;;;;;;22.00;20.70;;;;;;;;;;5093609;28;20907;-84
2022/05/27 00:30:39;;;;;;;22.53;21.23;;;;;;;;;;5093299;28;20424;-84
2022/05/27 00:33:07;;;;;;;21.37;20.07;;;;;;;;;;5093797;28;20747;-84
2022/05/27 00:35:35;;;;;;;22.10;20.80;;;;;;;;;;5094094;28;20420;-84
2022/05/27 00:38:03;;;;;;;20.00;19.00;;;;;;;;;;5093728;28;20417;-84
2022/05/27 00:40:36;;;;;;;21.70;20.60;;;;;;;;;;5093727;28;20423;-84
2022/05/27 00:43:03;;;;;;;23.80;21.97;;;;;;;;;;5093511;28;20461;-84
2022/05/27 00:45:31;;;;;;;22.07;20.73;;;;;;;;;;5093493;28;20491;-83
2022/05/27 00:47:59;;;;;;;22.63;21.43;;;;;;;;;;5093253;28;20424;-82
2022/05/27 00:50:29;;;;;;;22.80;21.40;;;;;;;;;;5093484;28;20772;-84
2022/05/27 00:52:58;;;;;;;25.07;23.50;;;;;;;;;;5093394;28;20419;-82
2022/05/27 00:55:28;;;;;;;22.93;21.63;;;;;;;;;;5093212;28;20415;-83
2022/05/27 00:57:57;;;;;;;25.10;23.60;;;;;;;;;;5093352;28;20412;-83
2022/05/27 01:00:26;;;;;;;24.30;22.90;;;;;;;;;;5075198;28;20416;-84
2022/05/27 01:02:55;;;;;;;24.50;22.97;;;;;;;;;;5092998;28;20434;-83
2022/05/27 01:05:24;;;;;;;24.10;22.70;;;;;;;;;;5093389;28;20459;-83
2022/05/27 01:07:52;;;;;;;22.83;21.43;;;;;;;;;;5093265;28;20423;-84
2022/05/27 01:10:21;;;;;;;22.60;21.30;;;;;;;;;;5092936;28;20415;-83
2022/05/27 01:13:00;;;;;;;23.10;21.80;;;;;;;;;;5093001;28;20445;-83
2022/05/27 01:15:34;;;;;;;24.83;23.17;;;;;;;;;;5093080;28;21139;-83
2022/05/27 01:18:19;;;;;;;24.20;22.87;;;;;;;;;;5093143;28;20526;-83
2022/05/27 01:20:47;;;;;;;25.60;23.80;;;;;;;;;;5093287;28;20819;-84
2022/05/27 01:23:34;;;;;;;24.47;23.07;;;;;;;;;;5092872;28;20846;-83
2022/05/27 01:26:19;;;;;;;26.20;24.60;;;;;;;;;;5093121;28;20488;-83
2022/05/27 01:28:51;;;;;;;28.00;26.20;;;;;;;;;;5093174;28;20461;-84
2022/05/27 01:31:25;;;;;;;24.60;23.20;;;;;;;;;;5093387;28;20416;-82
2022/05/27 01:34:00;;;;;;;27.37;25.60;;;;;;;;;;5092969;28;20456;-82
2022/05/27 01:36:32;;;;;;;25.33;23.77;;;;;;;;;;5092952;28;20448;-84
2022/05/27 01:39:04;;;;;;;27.77;25.70;;;;;;;;;;5092521;28;20416;-82
2022/05/27 01:41:38;;;;;;;27.07;25.40;;;;;;;;;;5094055;28;20416;-85
2022/05/27 01:44:11;;;;;;;23.17;21.77;;;;;;;;;;5100445;28;20863;-84
2022/05/27 01:46:43;;;;;;;29.40;27.30;;;;;;;;;;5096522;28;20886;-83
2022/05/27 01:49:13;;;;;;;26.17;24.67;;;;;;;;;;5097109;28;20419;-84
2022/05/27 01:51:42;;;;;;;26.73;25.10;;;;;;;;;;5096882;28;20431;-84
2022/05/27 01:54:12;;;;;;;30.07;27.97;;;;;;;;;;5097258;28;20638;-82
2022/05/27 01:56:42;;;;;;;27.93;26.13;;;;;;;;;;5097579;28;20424;-84
2022/05/27 01:59:11;;;;;;;27.43;25.63;;;;;;;;;;5097334;28;20893;-83
2022/05/27 02:01:40;;;;;;;29.07;27.17;;;;;;;;;;5098577;28;20404;-83
2022/05/27 02:04:11;;;;;;;30.57;28.37;;;;;;;;;;5096811;28;20811;-84
2022/05/27 02:06:41;;;;;;;29.40;27.50;;;;;;;;;;5097470;28;20831;-83
2022/05/27 02:09:10;;;;;;;28.57;26.80;;;;;;;;;;5098557;28;20408;-83
2022/05/27 02:11:38;;;;;;;29.13;27.30;;;;;;;;;;5097110;28;20408;-82
2022/05/27 02:14:08;;;;;;;29.40;27.40;;;;;;;;;;5097104;28;20780;-82
2022/05/27 02:16:37;;;;;;;28.90;27.10;;;;;;;;;;5099139;28;20445;-82
2022/05/27 02:19:07;;;;;;;24.87;23.47;;;;;;;;;;5099138;28;20408;-82
2022/05/27 02:21:38;;;;;;;30.50;28.70;;;;;;;;;;5098417;28;20788;-82
2022/05/27 02:24:08;;;;;;;28.63;26.93;;;;;;;;;;5097205;28;20401;-83
2022/05/27 02:26:39;;;;;;;34.70;32.50;;;;;;;;;;5095892;28;20829;-83
2022/05/27 02:29:09;;;;;;;32.77;30.80;;;;;;;;;;5095660;28;20444;-83
2022/05/27 02:31:37;;;;;;;34.50;32.57;;;;;;;;;;5096021;28;20905;-83
2022/05/27 02:36:58;;;;;;;41.10;38.53;;;;;;;;;;5077785;28;20495;-83
2022/05/27 02:39:26;;;;;;;39.40;36.90;;;;;;;;;;5095462;28;20404;-83
2022/05/27 02:41:58;;;;;;;43.40;40.57;;;;;;;;;;5095195;28;20408;-83
2022/05/27 02:44:33;;;;;;;52.90;49.57;;;;;;;;;;5095643;28;20441;-82
2022/05/27 02:47:05;;;;;;;41.87;39.43;;;;;;;;;;5095461;28;20969;-83
2022/05/27 02:49:36;;;;;;;41.23;38.67;;;;;;;;;;5095744;28;20850;-83
2022/05/27 02:52:08;;;;;;;40.77;38.27;;;;;;;;;;5095451;28;20437;-82
2022/05/27 02:54:42;;;;;;;42.00;39.20;;;;;;;;;;5095031;28;20491;-83
2022/05/27 02:57:15;;;;;;;41.17;38.20;;;;;;;;;;5094672;28;20954;-83
2022/05/27 02:59:43;;;;;;;40.80;38.70;;;;;;;;;;5094925;28;20426;-82
2022/05/27 03:02:12;;;;;;;42.63;40.43;;;;;;;;;;5094761;28;20983;-82
2022/05/27 03:04:41;;;;;;;40.13;37.73;;;;;;;;;;5094543;28;20521;-82
2022/05/27 03:07:14;;;;;;;45.10;42.80;;;;;;;;;;5094978;28;20479;-83
2022/05/27 03:09:49;;;;;;;47.70;45.40;;;;;;;;;;5095104;28;20412;-83
2022/05/27 03:12:26;;;;;;;46.10;43.70;;;;;;;;;;5095552;28;20419;-82
2022/05/27 03:15:14;;;;;;;43.27;41.07;;;;;;;;;;5095520;28;20766;-82
2022/05/27 03:17:46;;;;;;;45.30;42.90;;;;;;;;;;5086750;28;20436;-83
2022/05/27 03:20:19;;;;;;;46.70;44.27;;;;;;;;;;5094805;28;20436;-82
2022/05/27 03:23:06;;;;;;;47.13;44.80;;;;;;;;;;5094507;28;20830;-82
2022/05/27 03:25:39;;;;;;;49.00;46.30;;;;;;;;;;5094859;28;20805;-82
2022/05/27 03:28:12;;;;;;;48.00;45.60;;;;;;;;;;5076766;28;20412;-83
2022/05/27 03:30:44;;;;;;;45.83;43.63;;;;;;;;;;5094666;28;20437;-83
2022/05/27 03:33:18;;;;;;;48.33;45.90;;;;;;;;;;5094488;28;20468;-83
2022/05/27 03:35:49;;;;;;;42.80;40.60;;;;;;;;;;5094533;28;20408;-83
2022/05/27 03:38:17;;;;;;;44.03;41.70;;;;;;;;;;5094208;28;20437;-83
2022/05/27 03:40:48;;;;;;;42.83;40.53;;;;;;;;;;5094667;28;20408;-83
2022/05/27 03:43:16;;;;;;;44.10;41.70;;;;;;;;;;5094552;28;20412;-83
2022/05/27 03:45:50;;;;;;;40.50;38.30;;;;;;;;;;5076544;28;20473;-83
2022/05/27 03:48:18;;;;;;;42.10;39.80;;;;;;;;;;5094177;28;20911;-83
2022/05/27 03:50:47;;;;;;;40.77;38.37;;;;;;;;;;5094391;28;20434;-84
2022/05/27 03:53:15;;;;;;;43.77;41.37;;;;;;;;;;5094361;28;20431;-83
2022/05/27 03:55:44;;;;;;;44.53;41.93;;;;;;;;;;5094002;28;20437;-83
2022/05/27 03:58:13;;;;;;;41.40;39.10;;;;;;;;;;5093928;28;20420;-83
2022/05/27 04:00:41;;;;;;;44.23;41.73;;;;;;;;;;5094186;28;20413;-83
2022/05/27 04:03:09;;;;;;;42.73;40.33;;;;;;;;;;5093629;28;20509;-82
2022/05/27 04:05:37;;;;;;;43.23;40.83;;;;;;;;;;5093404;28;20455;-83
2022/05/27 04:08:04;;;;;;;43.03;40.63;;;;;;;;;;5093695;28;20408;-83
2022/05/27 04:10:31;;;;;;;42.97;40.47;;;;;;;;;;5093902;28;20420;-83
2022/05/27 04:12:59;;;;;;;44.90;42.30;;;;;;;;;;5093988;28;20441;-83
2022/05/27 04:15:28;;;;;;;45.23;42.77;;;;;;;;;;5094089;28;20408;-83
2022/05/27 04:17:55;;;;;;;43.33;40.50;;;;;;;;;;5093542;28;20408;-83
2022/05/27 04:20:22;;;;;;;42.00;39.70;;;;;;;;;;5093732;28;20416;-83
2022/05/27 04:22:54;;;;;;;43.37;40.90;;;;;;;;;;5095330;28;20445;-83
2022/05/27 04:25:22;;;;;;;44.10;41.43;;;;;;;;;;5094545;28;20447;-83
2022/05/27 04:27:49;;;;;;;46.00;43.70;;;;;;;;;;5095008;28;20419;-83
2022/05/27 04:30:18;;;;;;;44.63;42.13;;;;;;;;;;5095237;28;20427;-82
2022/05/27 04:32:47;;;;;;;44.27;41.90;;;;;;;;;;5096654;28;20809;-82
2022/05/27 04:35:15;;;;;;;44.60;41.80;;;;;;;;;;5095166;28;20919;-83
2022/05/27 04:37:42;;;;;;;44.07;41.37;;;;;;;;;;5094825;28;20404;-83
2022/05/27 04:40:10;;;;;;;45.77;43.20;;;;;;;;;;5098257;28;20415;-83
2022/05/27 04:42:38;;;;;;;46.47;43.97;;;;;;;;;;5063398;28;20424;-82
2022/05/27 04:45:06;;;;;;;44.13;41.83;;;;;;;;;;5095422;28;20413;-83
2022/05/27 04:47:34;;;;;;;46.37;43.97;;;;;;;;;;5095137;28;20481;-83
2022/05/27 04:50:03;;;;;;;44.77;42.27;;;;;;;;;;5095703;28;20445;-83
2022/05/27 04:52:31;;;;;;;44.17;41.77;;;;;;;;;;5096523;28;20486;-83
2022/05/27 04:55:00;;;;;;;45.00;42.50;;;;;;;;;;5096957;28;20438;-83
2022/05/27 04:57:31;;;;;;;46.20;43.80;;;;;;;;;;5095500;28;20503;-83
2022/05/27 04:59:59;;;;;;;41.17;38.77;;;;;;;;;;5097193;28;20420;-82
2022/05/27 05:02:27;;;;;;;42.93;40.40;;;;;;;;;;5097940;28;20416;-83
2022/05/27 05:04:56;;;;;;;47.63;45.17;;;;;;;;;;5099627;28;20455;-82
2022/05/27 05:07:27;;;;;;;43.70;41.20;;;;;;;;;;5102437;28;20493;-83
2022/05/27 05:09:55;;;;;;;41.30;38.90;;;;;;;;;;5101238;28;20438;-82
2022/05/27 05:12:24;;;;;;;41.80;39.70;;;;;;;;;;5101974;28;20446;-83
2022/05/27 05:14:51;;;;;;;36.80;34.87;;;;;;;;;;5101950;28;20408;-83
2022/05/27 05:17:19;;;;;;;35.00;33.10;;;;;;;;;;5102579;28;20428;-82
2022/05/27 05:19:53;;;;;;;37.43;35.43;;;;;;;;;;5102976;28;20404;-83
2022/05/27 05:22:26;;;;;;;40.37;38.20;;;;;;;;;;5105233;28;20428;-82
2022/05/27 05:25:01;;;;;;;40.57;38.47;;;;;;;;;;5105769;28;20472;-80
2022/05/27 05:27:33;;;;;;;33.10;31.20;;;;;;;;;;5104619;28;20480;-83
2022/05/27 05:30:02;;;;;;;35.43;33.33;;;;;;;;;;5103994;28;20480;-82
2022/05/27 05:32:32;;;;;;;40.17;38.17;;;;;;;;;;5104355;28;21011;-83
2022/05/27 05:35:04;;;;;;;35.77;33.70;;;;;;;;;;5085820;28;20445;-83
2022/05/27 05:37:40;;;;;;;36.30;34.10;;;;;;;;;;5103652;28;20432;-82
2022/05/27 05:40:11;;;;;;;35.10;33.30;;;;;;;;;;5103133;28;20412;-82
2022/05/27 05:42:42;;;;;;;33.97;32.27;;;;;;;;;;5102208;28;20812;-80
2022/05/27 05:45:16;;;;;;;33.97;32.07;;;;;;;;;;5101601;28;20483;-83
2022/05/27 05:47:52;;;;;;;34.93;32.73;;;;;;;;;;5104136;28;20474;-84
2022/05/27 05:50:30;;;;;;;32.90;31.00;;;;;;;;;;5103497;28;20451;-80
2022/05/27 05:52:59;;;;;;;31.20;29.50;;;;;;;;;;5102793;28;20477;-83
2022/05/27 05:55:38;;;;;;;31.97;30.27;;;;;;;;;;5103309;28;20449;-83
2022/05/27 05:58:06;;;;;;;34.03;31.90;;;;;;;;;;5102028;28;20432;-83
2022/05/27 06:00:34;;;;;;;33.40;31.60;;;;;;;;;;5101640;28;20465;-82
2022/05/27 06:03:04;;;;;;;31.70;29.90;;;;;;;;;;5100858;28;20475;-83
2022/05/27 06:05:32;;;;;;;32.27;30.57;;;;;;;;;;5101917;28;20440;-83
2022/05/27 06:08:01;;;;;;;29.90;27.90;;;;;;;;;;5101349;28;20456;-83
2022/05/27 06:10:32;;;;;;;30.90;28.90;;;;;;;;;;5082966;28;20762;-78
2022/05/27 06:13:00;;;;;;;31.13;29.23;;;;;;;;;;5103984;28;20428;-83
2022/05/27 06:15:31;;;;;;;27.30;25.70;;;;;;;;;;5101478;28;20417;-82
2022/05/27 06:18:00;;;;;;;28.33;26.80;;;;;;;;;;5101394;28;20507;-83
2022/05/27 06:20:28;;;;;;;26.23;24.57;;;;;;;;;;5101725;28;20939;-88
2022/05/27 06:22:56;;;;;;;26.73;25.33;;;;;;;;;;5105643;28;20424;-81
2022/05/27 06:25:24;;;;;;;25.53;24.23;;;;;;;;;;5101595;28;20409;-83
2022/05/27 06:34:23;;;;;;;27.20;25.57;;;;;;;;;;5101620;28;20467;-82
2022/05/27 06:36:16;;;;;;;25.00;23.70;;;;;;;;;;5101157;28;20433;-82
2022/05/27 06:38:45;;;;;;;25.10;23.50;;;;;;;;;;5101371;28;20760;-83
2022/05/27 06:41:13;;;;;;;23.63;22.53;;;;;;;;;;5101603;28;20430;-83
2022/05/27 06:43:42;;;;;;;24.20;23.00;;;;;;;;;;5100514;28;20428;-84
2022/05/27 06:46:10;;;;;;;23.87;22.50;;;;;;;;;;5099654;28;20990;-83
2022/05/27 06:48:38;;;;;;;23.70;22.50;;;;;;;;;;5098970;28;20901;-83
2022/05/27 06:51:08;;;;;;;24.53;23.10;;;;;;;;;;5101808;28;20430;-83
2022/05/27 06:53:36;;;;;;;22.17;20.97;;;;;;;;;;5102173;28;20511;-84
2022/05/27 06:56:04;;;;;;;22.43;21.20;;;;;;;;;;5099841;28;20453;-84
2022/05/27 06:58:32;;;;;;;22.63;21.53;;;;;;;;;;5099974;28;20424;-83
2022/05/27 07:01:03;;;;;;;21.43;20.30;;;;;;;;;;5100771;28;20427;-84
2022/05/27 07:03:31;;;;;;;22.50;21.40;;;;;;;;;;5101097;28;20478;-83
2022/05/27 07:06:00;;;;;;;21.93;20.80;;;;;;;;;;5099834;28;20541;-83
2022/05/27 07:08:27;;;;;;;23.07;21.50;;;;;;;;;;5100238;28;20459;-83
2022/05/27 07:10:55;;;;;;;23.17;21.60;;;;;;;;;;5099697;28;20483;-84
2022/05/27 07:13:24;;;;;;;21.70;20.50;;;;;;;;;;5099834;28;20428;-83
2022/05/27 07:15:52;;;;;;;22.60;21.30;;;;;;;;;;5100820;28;20448;-83
2022/05/27 07:18:22;;;;;;;20.50;19.40;;;;;;;;;;5101561;28;20442;-82
2022/05/27 07:20:51;;;;;;;21.40;20.10;;;;;;;;;;5109190;28;20454;-83
2022/05/27 07:23:19;;;;;;;20.63;19.20;;;;;;;;;;5101801;28;20458;-82
2022/05/27 07:25:48;;;;;;;20.10;19.00;;;;;;;;;;5102544;28;20453;-83
2022/05/27 07:28:16;;;;;;;20.17;19.10;;;;;;;;;;5102045;28;20505;-84
2022/05/27 07:30:44;;;;;;;21.03;19.53;;;;;;;;;;5101568;28;20437;-83
2022/05/27 07:33:14;;;;;;;19.87;18.53;;;;;;;;;;5102542;28;20514;-83
2022/05/27 07:35:44;;;;;;;20.37;19.27;;;;;;;;;;5103182;28;20392;-82
2022/05/27 07:38:15;;;;;;;19.80;18.73;;;;;;;;;;5102774;28;20489;-82
2022/05/27 07:40:43;;;;;;;21.17;19.97;;;;;;;;;;5100042;28;20442;-83
2022/05/27 07:43:12;;;;;;;20.70;19.40;;;;;;;;;;5101933;28;20436;-83
2022/05/27 07:45:49;;;;;;;20.40;19.10;;;;;;;;;;5103392;28;20416;-84
2022/05/27 07:48:20;;;;;;;20.27;19.17;;;;;;;;;;5104413;28;20524;-82
2022/05/27 07:50:53;;;;;;;21.60;19.83;;;;;;;;;;5099413;28;20430;-86
2022/05/27 07:53:53;;;;;;;21.43;19.70;;;;;;;;;;5089042;28;20429;-82
2022/05/27 07:56:28;;;;;;;21.10;19.70;;;;;;;;;;5100076;28;20408;-81
2022/05/27 07:59:00;;;;;;;22.57;21.27;;;;;;;;;;5079698;28;20506;-83
2022/05/27 08:01:36;;;;;;;22.47;20.77;;;;;;;;;;5096251;28;20537;-83
2022/05/27 08:04:07;;;;;;;21.97;20.33;;;;;;;;;;5091540;28;20468;-82
2022/05/27 08:06:37;;;;;;;22.70;21.00;;;;;;;;;;5084836;28;20550;-82
2022/05/27 08:09:06;;;;;;;22.53;21.23;;;;;;;;;;5084675;28;20429;-80
2022/05/27 08:11:37;;;;;;;23.23;21.83;;;;;;;;;;5088068;28;20525;-82
2022/05/27 08:14:06;;;;;;;23.73;22.00;;;;;;;;;;5091808;28;20421;-82
2022/05/27 08:19:16;;;;;;;23.17;21.43;;;;;;;;;;5088516;28;20417;-83
2022/05/27 08:21:45;;;;;;;22.17;20.97;;;;;;;;;;5094017;28;20454;-83
2022/05/27 08:24:12;;;;;;;22.17;20.87;;;;;;;;;;5096698;28;20430;-85
2022/05/27 08:26:40;;;;;;;23.27;21.40;;;;;;;;;;5095818;28;20898;-85
2022/05/27 08:29:08;;;;;;;23.27;21.83;;;;;;;;;;5097119;28;20446;-84
2022/05/27 08:31:35;;;;;;;23.53;21.63;;;;;;;;;;5095078;28;20423;-83
2022/05/27 08:39:35;;;;;;;22.97;21.53;;;;;;;;;;5098545;28;20428;-84
2022/05/27 08:42:11;;;;;;;24.57;22.97;;;;;;;;;;5102036;28;20408;-84
2022/05/27 08:44:47;;;;;;;23.13;21.63;;;;;;;;;;5095187;28;20404;-84
2022/05/27 08:47:18;;;;;;;22.50;21.20;;;;;;;;;;5097129;28;21013;-84
2022/05/27 08:49:47;;;;;;;23.37;21.73;;;;;;;;;;5095486;28;20453;-84
2022/05/27 08:52:22;;;;;;;23.10;21.80;;;;;;;;;;5095039;28;20404;-84
2022/05/27 08:54:50;;;;;;;22.90;21.60;;;;;;;;;;5095334;28;20791;-84
2022/05/27 09:00:07;;;;;;;22.40;21.00;;;;;;;;;;5094880;28;20842;-84
2022/05/27 09:02:37;;;;;;;22.37;21.17;;;;;;;;;;5096068;28;20450;-84
2022/05/27 09:05:14;;;;;;;23.03;21.40;;;;;;;;;;5096254;28;20433;-83
2022/05/27 09:07:48;;;;;;;23.97;22.47;;;;;;;;;;5098006;28;20458;-83
2022/05/27 09:10:18;;;;;;;23.33;21.70;;;;;;;;;;5100274;28;20430;-83
2022/05/27 09:12:47;;;;;;;23.03;21.63;;;;;;;;;;5099254;28;20417;-83
2022/05/27 09:15:26;;;;;;;22.10;20.90;;;;;;;;;;5098970;28;20404;-83
2022/05/27 09:17:59;;;;;;;23.43;21.93;;;;;;;;;;5100057;28;20419;-84
2022/05/27 09:20:32;;;;;;;22.57;21.27;;;;;;;;;;5102301;28;21015;-83
2022/05/27 09:23:08;;;;;;;23.57;22.00;;;;;;;;;;5101108;28;20430;-84
2022/05/27 09:25:40;;;;;;;24.40;22.73;;;;;;;;;;5082419;28;20542;-84
2022/05/27 09:28:12;;;;;;;22.47;20.80;;;;;;;;;;5101680;28;20471;-82
2022/05/27 09:30:41;;;;;;;23.97;22.30;;;;;;;;;;5087306;28;20428;-82
2022/05/27 09:33:09;;;;;;;24.53;22.90;;;;;;;;;;5106000;28;20412;-80
2022/05/27 09:35:38;;;;;;;22.97;21.17;;;;;;;;;;5104210;28;20415;-80
2022/05/27 09:38:09;;;;;;;24.17;22.27;;;;;;;;;;5104291;28;20528;-82
2022/05/27 09:40:41;;;;;;;26.20;23.33;;;;;;;;;;5085417;28;20505;-81
2022/05/27 09:43:12;;;;;;;24.80;23.20;;;;;;;;;;5103324;28;20424;-83
2022/05/27 09:45:43;;;;;;;23.97;22.57;;;;;;;;;;5104041;28;20420;-83
2022/05/27 09:48:13;;;;;;;24.60;22.77;;;;;;;;;;5104121;28;20507;-82
2022/05/27 09:50:45;;;;;;;23.70;22.20;;;;;;;;;;5105087;28;20467;-83
2022/05/27 09:53:19;;;;;;;23.53;22.13;;;;;;;;;;5103087;28;21001;-82
2022/05/27 09:56:00;;;;;;;24.43;22.80;;;;;;;;;;5102799;28;20441;-83
2022/05/27 09:58:28;;;;;;;25.23;23.50;;;;;;;;;;5104234;28;20814;-81
2022/05/27 10:01:01;;;;;;;24.83;23.07;;;;;;;;;;5104524;28;20468;-84
2022/05/27 10:03:36;;;;;;;23.90;22.50;;;;;;;;;;5104374;28;20564;-83
2022/05/27 10:06:06;;;;;;;23.67;22.13;;;;;;;;;;5108299;28;20441;-83
2022/05/27 10:08:37;;;;;;;24.07;22.23;;;;;;;;;;5105796;28;20447;-83
2022/05/27 10:11:14;;;;;;;23.00;21.60;;;;;;;;;;5107807;28;20453;-82
2022/05/27 10:13:44;;;;;;;24.47;22.77;;;;;;;;;;5108392;28;20431;-81
2022/05/27 10:16:12;;;;;;;22.93;21.27;;;;;;;;;;5107727;28;20412;-82
2022/05/27 10:24:34;;;;;;;23.23;21.50;;;;;;;;;;5114196;28;20412;-84
2022/05/27 10:33:23;;;;;;;23.27;21.77;;;;;;;;;;5049822;28;20436;-84
2022/05/27 10:38:48;;;;;;;23.70;22.13;;;;;;;;;;5050781;28;20411;-83
2022/05/27 10:41:19;;;;;;;24.30;22.60;;;;;;;;;;5038963;28;21064;-83
2022/05/27 10:43:59;;;;;;;23.60;22.00;;;;;;;;;;5034253;28;20441;-86
2022/05/27 10:46:31;;;;;;;23.23;21.73;;;;;;;;;;5035349;28;20531;-83
2022/05/27 10:49:10;;;;;;;23.30;21.77;;;;;;;;;;5035857;28;20475;-83
2022/05/27 10:51:41;;;;;;;22.87;21.50;;;;;;;;;;5036795;28;20415;-83
2022/05/27 10:54:13;;;;;;;24.63;22.70;;;;;;;;;;5036618;28;20428;-83
2022/05/27 10:56:44;;;;;;;25.60;24.00;;;;;;;;;;5035636;28;20607;-84
2022/05/27 11:02:22;;;;;;;24.40;22.80;;;;;;;;;;4967534;28;20434;-85
2022/05/27 11:05:06;;;;;;;24.97;23.17;;;;;;;;;;4968221;28;20518;-84
2022/05/27 11:07:38;;;;;;;26.03;23.93;;;;;;;;;;4971016;28;20463;-86
2022/05/27 11:10:14;;;;;;;25.00;23.27;;;;;;;;;;4996720;28;20429;-87
2022/05/27 11:15:39;;;;;;;23.90;22.00;;;;;;;;;;4996806;28;20413;-84
2022/05/27 11:18:11;;;;;;;23.70;21.97;;;;;;;;;;5001994;28;20441;-84
2022/05/27 11:20:55;;;;;;;24.57;22.77;;;;;;;;;;5001754;28;20431;-84
2022/05/27 11:23:40;;;;;;;23.70;22.20;;;;;;;;;;5001804;28;20416;-84
2022/05/27 11:26:12;;;;;;;23.43;21.80;;;;;;;;;;5007332;28;20435;-84
2022/05/27 11:28:59;;;;;;;23.17;21.57;;;;;;;;;;5007478;28;20503;-83
2022/05/27 11:31:32;;;;;;;23.83;22.13;;;;;;;;;;5016248;28;20451;-84
2022/05/27 11:34:07;;;;;;;23.13;21.73;;;;;;;;;;5077068;28;20446;-83
2022/05/27 11:36:42;;;;;;;23.30;21.90;;;;;;;;;;5096745;28;20441;-84
2022/05/27 11:39:19;;;;;;;23.63;22.13;;;;;;;;;;5098007;28;20441;-84
2022/05/27 11:41:53;;;;;;;23.27;21.77;;;;;;;;;;5099038;28;20404;-84
2022/05/27 11:44:28;;;;;;;23.17;21.67;;;;;;;;;;5085149;28;20433;-84
2022/05/27 11:47:10;;;;;;;23.90;22.30;;;;;;;;;;5089415;28;20419;-84
2022/05/27 11:49:42;;;;;;;23.77;21.93;;;;;;;;;;5086245;28;20480;-84
2022/05/27 11:52:23;;;;;;;25.17;23.33;;;;;;;;;;5086774;28;20409;-84
2022/05/27 11:55:01;;;;;;;23.83;22.23;;;;;;;;;;5059302;28;20432;-84
2022/05/27 11:57:34;;;;;;;23.77;22.17;;;;;;;;;;5076516;28;20503;-83
2022/05/27 12:00:05;;;;;;;24.17;22.57;;;;;;;;;;5074735;28;20438;-84
2022/05/27 12:02:38;;;;;;;24.77;23.10;;;;;;;;;;5076360;28;20405;-84
2022/05/27 12:05:09;;;;;;;24.27;22.73;;;;;;;;;;5037229;28;20460;-85
2022/05/27 12:07:41;;;;;;;24.57;22.97;;;;;;;;;;5037567;28;20440;-84
2022/05/27 12:10:15;;;;;;;25.27;23.40;;;;;;;;;;5036459;28;20502;-85
2022/05/27 12:12:46;;;;;;;26.07;24.07;;;;;;;;;;5036508;28;20414;-84
2022/05/27 12:15:20;;;;;;;23.50;22.07;;;;;;;;;;5035636;28;20432;-84
2022/05/27 12:17:50;;;;;;;25.30;23.30;;;;;;;;;;5034539;28;20448;-84
2022/05/27 12:20:19;;;;;;;25.10;23.30;;;;;;;;;;5035893;28;20407;-84
2022/05/27 12:22:47;;;;;;;24.60;22.80;;;;;;;;;;5036421;28;20415;-84
2022/05/27 12:25:17;;;;;;;24.67;23.00;;;;;;;;;;5036160;28;20448;-85
2022/05/27 12:27:45;;;;;;;25.20;23.50;;;;;;;;;;5034665;28;20948;-84
2022/05/27 12:30:15;;;;;;;25.30;23.83;;;;;;;;;;5035214;28;20444;-85
2022/05/27 12:32:45;;;;;;;25.30;23.60;;;;;;;;;;5034361;28;20415;-85
2022/05/27 12:35:20;;;;;;;25.67;23.83;;;;;;;;;;5034848;28;20414;-84
2022/05/27 12:37:49;;;;;;;25.63;23.60;;;;;;;;;;5033877;28;20439;-86
2022/05/27 12:40:25;;;;;;;25.47;23.77;;;;;;;;;;5034240;28;20770;-86
2022/05/27 12:42:55;;;;;;;25.23;23.63;;;;;;;;;;5034439;28;20411;-85
2022/05/27 12:45:23;;;;;;;25.33;23.70;;;;;;;;;;5034164;28;20429;-87
2022/05/27 12:47:54;;;;;;;25.20;23.30;;;;;;;;;;5034236;28;20418;-86
2022/05/27 12:50:25;;;;;;;24.50;22.57;;;;;;;;;;5034919;28;20409;-85
2022/05/27 12:52:54;;;;;;;25.50;23.90;;;;;;;;;;5034839;28;20436;-86
2022/05/27 13:01:23;;;;;;;25.50;23.90;;;;;;;;;;5033736;28;20501;-89
2022/05/27 13:03:53;;;;;;;24.17;22.50;;;;;;;;;;5052942;28;20460;-85
2022/05/27 13:06:38;;;;;;;25.20;23.50;;;;;;;;;;5082606;28;20439;-85
2022/05/27 13:09:07;;;;;;;24.33;22.70;;;;;;;;;;5093045;28;20482;-85
2022/05/27 13:11:44;;;;;;;25.70;23.97;;;;;;;;;;5081493;28;20437;-85
2022/05/27 13:14:17;;;;;;;25.17;23.27;;;;;;;;;;5089567;28;20908;-85
2022/05/27 13:16:47;;;;;;;26.03;23.87;;;;;;;;;;5086350;28;20473;-85
2022/05/27 13:19:33;;;;;;;24.40;22.70;;;;;;;;;;5078805;28;20405;-84
2022/05/27 13:22:03;;;;;;;24.30;22.60;;;;;;;;;;5079484;28;20437;-84
2022/05/27 13:24:33;;;;;;;26.17;24.13;;;;;;;;;;5074063;28;20439;-85
2022/05/27 13:27:02;;;;;;;24.80;23.00;;;;;;;;;;5074299;28;20480;-85
2022/05/27 13:29:33;;;;;;;24.07;22.17;;;;;;;;;;5073931;28;20453;-85
2022/05/27 13:32:03;;;;;;;24.70;23.20;;;;;;;;;;5074369;28;20405;-85
2022/05/27 13:37:31;;;;;;;24.10;22.50;;;;;;;;;;5123653;27;20581;-84
2022/05/27 13:40:03;;;;;;;23.93;22.33;;;;;;;;;;5121074;28;20443;-83
2022/05/27 13:42:32;;;;;;;24.40;22.80;;;;;;;;;;5123197;28;20769;-83
2022/05/27 13:45:01;;;;;;;25.40;23.60;;;;;;;;;;5111989;28;20441;-84
2022/05/27 13:47:29;;;;;;;24.60;22.73;;;;;;;;;;5111974;28;20404;-84
2022/05/27 13:49:56;;;;;;;25.40;23.80;;;;;;;;;;5112142;27;20480;-84
2022/05/27 13:52:25;;;;;;;24.93;23.03;;;;;;;;;;5111706;28;20419;-83
2022/05/27 13:55:02;;;;;;;26.80;24.90;;;;;;;;;;5113093;28;20433;-96
2022/05/27 13:57:31;;;;;;;24.97;23.37;;;;;;;;;;5113680;28;20881;-95
2022/05/27 14:00:00;;;;;;;24.27;22.30;;;;;;;;;;5111583;28;20444;-84
2022/05/27 14:02:30;;;;;;;22.50;21.10;;;;;;;;;;5111659;28;20404;-84
2022/05/27 14:04:58;;;;;;;24.57;22.53;;;;;;;;;;5111637;28;20416;-84
2022/05/27 14:07:29;;;;;;;24.60;22.77;;;;;;;;;;5112187;28;20441;-84
2022/05/27 14:09:57;;;;;;;24.87;23.27;;;;;;;;;;5111943;28;20894;-84
2022/05/27 14:12:31;;;;;;;26.80;24.70;;;;;;;;;;5111204;28;20907;-84
2022/05/27 14:15:02;;;;;;;27.10;25.33;;;;;;;;;;5112612;28;20418;-84
2022/05/27 14:17:30;;;;;;;23.23;21.70;;;;;;;;;;5112628;28;20793;-84
2022/05/27 14:20:00;;;;;;;23.93;22.43;;;;;;;;;;5111405;28;20915;-84
2022/05/27 14:22:39;;;;;;;26.17;24.27;;;;;;;;;;5112150;28;20432;-84
2022/05/27 14:25:07;;;;;;;26.37;24.50;;;;;;;;;;5111919;28;20411;-84
2022/05/27 14:27:39;;;;;;;26.77;24.67;;;;;;;;;;5111403;28;20518;-84
2022/05/27 14:30:07;;;;;;;24.17;22.60;;;;;;;;;;5111429;28;20407;-84
2022/05/27 14:32:35;;;;;;;24.10;22.20;;;;;;;;;;5111378;28;20776;-84
2022/05/27 14:35:05;;;;;;;23.93;22.30;;;;;;;;;;5111184;28;20788;-84
2022/05/27 14:37:42;;;;;;;23.93;22.33;;;;;;;;;;5111250;28;20956;-84
2022/05/27 14:40:11;;;;;;;24.00;22.30;;;;;;;;;;5110868;28;20414;-84
2022/05/27 14:42:40;;;;;;;25.17;23.40;;;;;;;;;;5111212;28;20444;-84
2022/05/27 14:45:11;;;;;;;24.47;22.93;;;;;;;;;;5111402;28;20504;-84
2022/05/27 14:47:40;;;;;;;24.03;22.33;;;;;;;;;;5103734;28;20813;-84
2022/05/27 14:50:18;;;;;;;24.77;23.27;;;;;;;;;;5097911;28;20819;-84
2022/05/27 14:52:53;;;;;;;25.10;23.30;;;;;;;;;;5098187;28;20461;-83
2022/05/27 14:55:23;;;;;;;25.10;23.30;;;;;;;;;;5098356;28;20510;-83
2022/05/27 14:57:53;;;;;;;24.10;22.10;;;;;;;;;;5097579;28;20416;-83
2022/05/27 15:00:28;;;;;;;26.10;24.00;;;;;;;;;;5097223;28;20400;-84
2022/05/27 15:02:57;;;;;;;24.57;23.07;;;;;;;;;;5096838;28;20418;-83
2022/05/27 15:05:30;;;;;;;25.13;23.13;;;;;;;;;;5095357;28;20432;-83
2022/05/27 15:08:01;;;;;;;24.43;22.83;;;;;;;;;;5096758;28;20412;-84
2022/05/27 15:10:32;;;;;;;23.50;22.10;;;;;;;;;;5096027;28;20442;-84
2022/05/27 15:13:20;;;;;;;24.90;23.07;;;;;;;;;;5095830;28;20507;-84
2022/05/27 15:15:48;;;;;;;25.03;23.43;;;;;;;;;;5095427;28;20455;-84
2022/05/27 15:18:17;;;;;;;25.13;23.57;;;;;;;;;;5095867;28;20413;-84
2022/05/27 15:20:45;;;;;;;25.27;23.47;;;;;;;;;;5096039;28;20424;-83
2022/05/27 15:23:12;;;;;;;25.33;23.63;;;;;;;;;;5096093;28;20441;-83
2022/05/27 15:25:40;;;;;;;24.10;22.50;;;;;;;;;;5096059;28;20436;-84
2022/05/27 15:33:59;;;;;;;25.20;23.50;;;;;;;;;;5095502;28;20398;-84